sensor_id;sensor_type;location;lat;lon;timestamp;P1;durP1;ratioP1;P2;durP2;ratioP2
37407;SDS011;24866;50.248;8.252;2023-05-21T00:01:22;22.15;;;17.02;;
37407;SDS011;24866;50.248;8.252;2023-05-21T00:03:52;20.63;;;16.35;;
37407;SDS011;24866;50.248;8.252;2023-05-21T00:06:22;23.23;;;15.30;;
37407;SDS011;24866;50.248;8.252;2023-05-21T00:08:52;22.65;;;16.42;;
37407;SDS011;24866;50.248;8.252;2023-05-21T00:11:22;20.02;;;15.52;;
37407;SDS011;24866;50.248;8.252;2023-05-21T00:13:52;21.80;;;16.67;;
37407;SDS011;24866;50.248;8.252;2023-05-21T00:16:23;19.98;;;15.52;;
37407;SDS011;24866;50.248;8.252;2023-05-21T00:18:53;23.55;;;17.33;;
37407;SDS011;24866;50.248;8.252;2023-05-21T00:21:25;24.58;;;16.52;;
37407;SDS011;24866;50.248;8.252;2023-05-21T00:23:56;23.50;;;16.40;;
37407;SDS011;24866;50.248;8.252;2023-05-21T00:26:26;19.45;;;15.40;;
37407;SDS011;24866;50.248;8.252;2023-05-21T00:28:56;22.83;;;16.48;;
37407;SDS011;24866;50.248;8.252;2023-05-21T00:31:27;23.45;;;17.60;;
37407;SDS011;24866;50.248;8.252;2023-05-21T00:33:59;20.77;;;15.63;;
37407;SDS011;24866;50.248;8.252;2023-05-21T00:36:29;25.20;;;16.73;;
37407;SDS011;24866;50.248;8.252;2023-05-21T00:38:58;24.73;;;16.55;;
37407;SDS011;24866;50.248;8.252;2023-05-21T00:41:29;20.30;;;16.88;;
37407;SDS011;24866;50.248;8.252;2023-05-21T00:43:59;18.95;;;15.00;;
37407;SDS011;24866;50.248;8.252;2023-05-21T00:46:31;22.23;;;17.27;;
37407;SDS011;24866;50.248;8.252;2023-05-21T00:49:01;21.70;;;16.75;;
37407;SDS011;24866;50.248;8.252;2023-05-21T00:51:31;20.65;;;15.85;;
37407;SDS011;24866;50.248;8.252;2023-05-21T00:54:01;21.52;;;16.48;;
37407;SDS011;24866;50.248;8.252;2023-05-21T00:56:32;24.80;;;17.00;;
37407;SDS011;24866;50.248;8.252;2023-05-21T00:59:02;19.75;;;15.50;;
37407;SDS011;24866;50.248;8.252;2023-05-21T01:01:34;22.52;;;16.30;;
37407;SDS011;24866;50.248;8.252;2023-05-21T01:04:04;20.23;;;15.00;;
37407;SDS011;24866;50.248;8.252;2023-05-21T01:06:34;19.00;;;14.32;;
37407;SDS011;24866;50.248;8.252;2023-05-21T01:09:04;19.60;;;14.18;;
37407;SDS011;24866;50.248;8.252;2023-05-21T01:11:37;20.08;;;14.85;;
37407;SDS011;24866;50.248;8.252;2023-05-21T01:14:09;22.92;;;15.93;;
37407;SDS011;24866;50.248;8.252;2023-05-21T01:16:43;21.92;;;15.15;;
37407;SDS011;24866;50.248;8.252;2023-05-21T01:19:18;19.20;;;14.00;;
37407;SDS011;24866;50.248;8.252;2023-05-21T01:21:50;19.52;;;13.68;;
37407;SDS011;24866;50.248;8.252;2023-05-21T01:24:24;20.13;;;15.55;;
37407;SDS011;24866;50.248;8.252;2023-05-21T01:26:54;24.05;;;14.85;;
37407;SDS011;24866;50.248;8.252;2023-05-21T01:29:25;20.95;;;15.30;;
37407;SDS011;24866;50.248;8.252;2023-05-21T01:31:58;20.85;;;15.23;;
37407;SDS011;24866;50.248;8.252;2023-05-21T01:34:33;20.77;;;15.55;;
37407;SDS011;24866;50.248;8.252;2023-05-21T01:37:11;20.92;;;14.82;;
37407;SDS011;24866;50.248;8.252;2023-05-21T01:39:48;21.17;;;15.60;;
37407;SDS011;24866;50.248;8.252;2023-05-21T01:42:22;21.15;;;15.90;;
37407;SDS011;24866;50.248;8.252;2023-05-21T01:44:53;21.27;;;15.55;;
37407;SDS011;24866;50.248;8.252;2023-05-21T01:47:25;20.65;;;14.98;;
37407;SDS011;24866;50.248;8.252;2023-05-21T01:50:00;18.20;;;14.77;;
37407;SDS011;24866;50.248;8.252;2023-05-21T01:52:31;23.05;;;14.95;;
37407;SDS011;24866;50.248;8.252;2023-05-21T01:55:02;21.73;;;15.40;;
37407;SDS011;24866;50.248;8.252;2023-05-21T01:57:32;19.48;;;14.82;;
37407;SDS011;24866;50.248;8.252;2023-05-21T02:00:02;22.98;;;15.27;;
37407;SDS011;24866;50.248;8.252;2023-05-21T02:02:33;20.42;;;14.82;;
37407;SDS011;24866;50.248;8.252;2023-05-21T02:05:04;20.88;;;16.00;;
37407;SDS011;24866;50.248;8.252;2023-05-21T02:07:35;22.90;;;15.93;;
37407;SDS011;24866;50.248;8.252;2023-05-21T02:10:07;20.23;;;15.65;;
37407;SDS011;24866;50.248;8.252;2023-05-21T02:12:37;22.35;;;15.43;;
37407;SDS011;24866;50.248;8.252;2023-05-21T02:15:08;19.67;;;14.85;;
37407;SDS011;24866;50.248;8.252;2023-05-21T02:17:41;21.05;;;14.73;;
37407;SDS011;24866;50.248;8.252;2023-05-21T02:20:11;20.00;;;15.43;;
37407;SDS011;24866;50.248;8.252;2023-05-21T02:22:42;25.58;;;14.43;;
37407;SDS011;24866;50.248;8.252;2023-05-21T02:25:16;21.48;;;15.30;;
37407;SDS011;24866;50.248;8.252;2023-05-21T02:27:46;20.98;;;15.50;;
37407;SDS011;24866;50.248;8.252;2023-05-21T02:30:20;21.70;;;16.00;;
37407;SDS011;24866;50.248;8.252;2023-05-21T02:32:50;20.98;;;15.98;;
37407;SDS011;24866;50.248;8.252;2023-05-21T02:35:20;22.42;;;16.27;;
37407;SDS011;24866;50.248;8.252;2023-05-21T02:37:50;22.13;;;15.80;;
37407;SDS011;24866;50.248;8.252;2023-05-21T02:40:28;20.60;;;13.88;;
37407;SDS011;24866;50.248;8.252;2023-05-21T02:42:59;22.05;;;16.25;;
37407;SDS011;24866;50.248;8.252;2023-05-21T02:45:29;22.42;;;15.98;;
37407;SDS011;24866;50.248;8.252;2023-05-21T02:47:59;20.00;;;14.93;;
37407;SDS011;24866;50.248;8.252;2023-05-21T02:50:29;18.88;;;14.90;;
37407;SDS011;24866;50.248;8.252;2023-05-21T02:52:59;21.75;;;15.82;;
37407;SDS011;24866;50.248;8.252;2023-05-21T02:55:30;25.55;;;16.77;;
37407;SDS011;24866;50.248;8.252;2023-05-21T02:58:00;18.25;;;14.07;;
37407;SDS011;24866;50.248;8.252;2023-05-21T03:00:30;21.20;;;16.20;;
37407;SDS011;24866;50.248;8.252;2023-05-21T03:03:00;21.65;;;15.90;;
37407;SDS011;24866;50.248;8.252;2023-05-21T03:05:30;20.20;;;15.05;;
37407;SDS011;24866;50.248;8.252;2023-05-21T03:08:00;19.48;;;14.73;;
37407;SDS011;24866;50.248;8.252;2023-05-21T03:10:31;20.80;;;15.82;;
37407;SDS011;24866;50.248;8.252;2023-05-21T03:13:02;21.58;;;15.65;;
37407;SDS011;24866;50.248;8.252;2023-05-21T03:15:33;20.17;;;14.32;;
37407;SDS011;24866;50.248;8.252;2023-05-21T03:18:05;19.00;;;14.40;;
37407;SDS011;24866;50.248;8.252;2023-05-21T03:20:35;20.38;;;15.65;;
37407;SDS011;24866;50.248;8.252;2023-05-21T03:23:10;24.33;;;16.65;;
37407;SDS011;24866;50.248;8.252;2023-05-21T03:25:42;21.63;;;16.08;;
37407;SDS011;24866;50.248;8.252;2023-05-21T03:28:13;21.00;;;15.80;;
37407;SDS011;24866;50.248;8.252;2023-05-21T03:30:42;21.60;;;15.40;;
37407;SDS011;24866;50.248;8.252;2023-05-21T03:33:13;20.25;;;15.75;;
37407;SDS011;24866;50.248;8.252;2023-05-21T03:35:43;22.27;;;17.00;;
37407;SDS011;24866;50.248;8.252;2023-05-21T03:38:13;22.15;;;15.80;;
37407;SDS011;24866;50.248;8.252;2023-05-21T03:40:45;19.98;;;15.20;;
37407;SDS011;24866;50.248;8.252;2023-05-21T03:43:15;22.65;;;17.50;;
37407;SDS011;24866;50.248;8.252;2023-05-21T03:45:44;21.65;;;14.90;;
37407;SDS011;24866;50.248;8.252;2023-05-21T03:48:14;21.63;;;15.43;;
37407;SDS011;24866;50.248;8.252;2023-05-21T03:50:47;21.48;;;15.60;;
37407;SDS011;24866;50.248;8.252;2023-05-21T03:53:16;19.23;;;15.03;;
37407;SDS011;24866;50.248;8.252;2023-05-21T03:55:48;20.27;;;14.52;;
37407;SDS011;24866;50.248;8.252;2023-05-21T03:58:22;22.77;;;15.50;;
37407;SDS011;24866;50.248;8.252;2023-05-21T04:00:53;19.98;;;15.15;;
37407;SDS011;24866;50.248;8.252;2023-05-21T04:03:23;20.42;;;15.50;;
37407;SDS011;24866;50.248;8.252;2023-05-21T04:05:53;22.13;;;14.88;;
37407;SDS011;24866;50.248;8.252;2023-05-21T04:08:23;23.38;;;16.80;;
37407;SDS011;24866;50.248;8.252;2023-05-21T04:10:54;30.00;;;15.68;;
37407;SDS011;24866;50.248;8.252;2023-05-21T04:13:24;20.73;;;13.63;;
37407;SDS011;24866;50.248;8.252;2023-05-21T04:15:55;22.20;;;15.02;;
37407;SDS011;24866;50.248;8.252;2023-05-21T04:18:25;21.83;;;15.60;;
37407;SDS011;24866;50.248;8.252;2023-05-21T04:20:55;20.25;;;14.85;;
37407;SDS011;24866;50.248;8.252;2023-05-21T04:23:26;18.58;;;14.60;;
37407;SDS011;24866;50.248;8.252;2023-05-21T04:25:57;22.52;;;16.50;;
37407;SDS011;24866;50.248;8.252;2023-05-21T04:28:27;18.60;;;13.85;;
37407;SDS011;24866;50.248;8.252;2023-05-21T04:30:57;23.55;;;16.40;;
37407;SDS011;24866;50.248;8.252;2023-05-21T04:33:27;19.77;;;15.60;;
37407;SDS011;24866;50.248;8.252;2023-05-21T04:35:57;20.88;;;15.13;;
37407;SDS011;24866;50.248;8.252;2023-05-21T04:38:27;22.65;;;15.75;;
37407;SDS011;24866;50.248;8.252;2023-05-21T04:40:58;22.35;;;16.63;;
37407;SDS011;24866;50.248;8.252;2023-05-21T04:43:30;23.88;;;15.40;;
37407;SDS011;24866;50.248;8.252;2023-05-21T04:46:00;21.45;;;15.77;;
37407;SDS011;24866;50.248;8.252;2023-05-21T04:48:30;21.80;;;15.40;;
37407;SDS011;24866;50.248;8.252;2023-05-21T04:51:01;19.27;;;14.88;;
37407;SDS011;24866;50.248;8.252;2023-05-21T04:53:32;22.63;;;15.18;;
37407;SDS011;24866;50.248;8.252;2023-05-21T04:56:04;19.35;;;14.60;;
37407;SDS011;24866;50.248;8.252;2023-05-21T04:58:34;18.87;;;15.30;;
37407;SDS011;24866;50.248;8.252;2023-05-21T05:03:37;17.98;;;13.55;;
37407;SDS011;24866;50.248;8.252;2023-05-21T05:06:07;23.85;;;16.35;;
37407;SDS011;24866;50.248;8.252;2023-05-21T05:08:37;21.08;;;15.63;;
37407;SDS011;24866;50.248;8.252;2023-05-21T05:11:08;22.02;;;15.98;;
37407;SDS011;24866;50.248;8.252;2023-05-21T05:13:38;21.50;;;14.68;;
37407;SDS011;24866;50.248;8.252;2023-05-21T05:16:08;20.75;;;15.25;;
37407;SDS011;24866;50.248;8.252;2023-05-21T05:18:39;20.02;;;15.23;;
37407;SDS011;24866;50.248;8.252;2023-05-21T05:21:10;20.90;;;15.80;;
37407;SDS011;24866;50.248;8.252;2023-05-21T05:23:39;19.90;;;15.05;;
37407;SDS011;24866;50.248;8.252;2023-05-21T05:26:11;21.35;;;15.82;;
37407;SDS011;24866;50.248;8.252;2023-05-21T05:28:41;21.65;;;16.92;;
37407;SDS011;24866;50.248;8.252;2023-05-21T05:31:10;20.83;;;15.32;;
37407;SDS011;24866;50.248;8.252;2023-05-21T05:33:40;22.25;;;15.55;;
37407;SDS011;24866;50.248;8.252;2023-05-21T05:36:10;19.48;;;14.82;;
37407;SDS011;24866;50.248;8.252;2023-05-21T05:38:40;27.25;;;15.18;;
37407;SDS011;24866;50.248;8.252;2023-05-21T05:41:11;21.55;;;15.70;;
37407;SDS011;24866;50.248;8.252;2023-05-21T05:43:41;20.20;;;15.10;;
37407;SDS011;24866;50.248;8.252;2023-05-21T05:46:11;20.02;;;14.52;;
37407;SDS011;24866;50.248;8.252;2023-05-21T05:48:45;20.13;;;15.02;;
37407;SDS011;24866;50.248;8.252;2023-05-21T05:51:17;20.58;;;15.60;;
37407;SDS011;24866;50.248;8.252;2023-05-21T05:53:47;20.23;;;16.13;;
37407;SDS011;24866;50.248;8.252;2023-05-21T05:56:18;19.95;;;14.55;;
37407;SDS011;24866;50.248;8.252;2023-05-21T05:58:48;22.83;;;15.10;;
37407;SDS011;24866;50.248;8.252;2023-05-21T06:01:18;19.48;;;14.32;;
37407;SDS011;24866;50.248;8.252;2023-05-21T06:03:49;21.00;;;16.27;;
37407;SDS011;24866;50.248;8.252;2023-05-21T06:06:19;20.90;;;15.77;;
37407;SDS011;24866;50.248;8.252;2023-05-21T06:08:49;22.13;;;16.52;;
37407;SDS011;24866;50.248;8.252;2023-05-21T06:11:20;20.30;;;16.38;;
37407;SDS011;24866;50.248;8.252;2023-05-21T06:13:50;21.08;;;15.65;;
37407;SDS011;24866;50.248;8.252;2023-05-21T06:16:20;21.10;;;16.45;;
37407;SDS011;24866;50.248;8.252;2023-05-21T06:18:50;19.75;;;16.10;;
37407;SDS011;24866;50.248;8.252;2023-05-21T06:21:20;21.40;;;16.25;;
37407;SDS011;24866;50.248;8.252;2023-05-21T06:23:50;19.48;;;15.75;;
37407;SDS011;24866;50.248;8.252;2023-05-21T06:26:21;23.77;;;16.30;;
37407;SDS011;24866;50.248;8.252;2023-05-21T06:28:51;18.70;;;15.25;;
37407;SDS011;24866;50.248;8.252;2023-05-21T06:31:21;19.25;;;15.52;;
37407;SDS011;24866;50.248;8.252;2023-05-21T06:33:51;21.42;;;16.05;;
37407;SDS011;24866;50.248;8.252;2023-05-21T06:36:21;20.88;;;15.13;;
37407;SDS011;24866;50.248;8.252;2023-05-21T06:38:53;18.42;;;15.05;;
37407;SDS011;24866;50.248;8.252;2023-05-21T06:41:24;18.83;;;13.90;;
37407;SDS011;24866;50.248;8.252;2023-05-21T06:43:54;20.05;;;15.60;;
37407;SDS011;24866;50.248;8.252;2023-05-21T06:46:24;20.80;;;13.57;;
37407;SDS011;24866;50.248;8.252;2023-05-21T06:48:54;19.63;;;15.32;;
37407;SDS011;24866;50.248;8.252;2023-05-21T06:51:24;21.27;;;15.43;;
37407;SDS011;24866;50.248;8.252;2023-05-21T06:53:54;18.70;;;15.00;;
37407;SDS011;24866;50.248;8.252;2023-05-21T06:56:25;23.58;;;13.90;;
37407;SDS011;24866;50.248;8.252;2023-05-21T06:58:55;21.58;;;16.70;;
37407;SDS011;24866;50.248;8.252;2023-05-21T07:01:26;18.27;;;15.05;;
37407;SDS011;24866;50.248;8.252;2023-05-21T07:03:56;21.00;;;15.48;;
37407;SDS011;24866;50.248;8.252;2023-05-21T07:06:26;22.35;;;14.30;;
37407;SDS011;24866;50.248;8.252;2023-05-21T07:11:31;17.63;;;14.68;;
37407;SDS011;24866;50.248;8.252;2023-05-21T07:14:01;20.65;;;15.07;;
37407;SDS011;24866;50.248;8.252;2023-05-21T07:16:31;19.95;;;15.35;;
37407;SDS011;24866;50.248;8.252;2023-05-21T07:19:01;18.70;;;15.30;;
37407;SDS011;24866;50.248;8.252;2023-05-21T07:21:31;19.60;;;15.18;;
37407;SDS011;24866;50.248;8.252;2023-05-21T07:24:01;22.20;;;14.93;;
37407;SDS011;24866;50.248;8.252;2023-05-21T07:26:32;18.58;;;15.02;;
37407;SDS011;24866;50.248;8.252;2023-05-21T07:29:02;18.45;;;14.30;;
37407;SDS011;24866;50.248;8.252;2023-05-21T07:31:32;20.83;;;15.05;;
37407;SDS011;24866;50.248;8.252;2023-05-21T07:34:02;20.80;;;14.73;;
37407;SDS011;24866;50.248;8.252;2023-05-21T07:36:34;17.42;;;14.45;;
37407;SDS011;24866;50.248;8.252;2023-05-21T07:39:04;16.27;;;14.40;;
37407;SDS011;24866;50.248;8.252;2023-05-21T07:41:35;19.92;;;14.93;;
37407;SDS011;24866;50.248;8.252;2023-05-21T07:44:05;17.00;;;13.57;;
37407;SDS011;24866;50.248;8.252;2023-05-21T07:46:36;18.67;;;15.27;;
37407;SDS011;24866;50.248;8.252;2023-05-21T07:49:06;17.40;;;14.15;;
37407;SDS011;24866;50.248;8.252;2023-05-21T07:51:37;20.50;;;15.48;;
37407;SDS011;24866;50.248;8.252;2023-05-21T07:54:07;16.45;;;13.63;;
37407;SDS011;24866;50.248;8.252;2023-05-21T07:56:39;20.08;;;14.48;;
37407;SDS011;24866;50.248;8.252;2023-05-21T07:59:08;18.95;;;14.65;;
37407;SDS011;24866;50.248;8.252;2023-05-21T08:01:38;16.88;;;14.20;;
37407;SDS011;24866;50.248;8.252;2023-05-21T08:04:09;16.55;;;13.15;;
37407;SDS011;24866;50.248;8.252;2023-05-21T08:06:38;17.20;;;14.32;;
37407;SDS011;24866;50.248;8.252;2023-05-21T08:09:08;16.98;;;14.23;;
37407;SDS011;24866;50.248;8.252;2023-05-21T08:11:40;16.83;;;13.98;;
37407;SDS011;24866;50.248;8.252;2023-05-21T08:16:49;16.50;;;13.32;;
37407;SDS011;24866;50.248;8.252;2023-05-21T08:19:19;16.48;;;12.40;;
37407;SDS011;24866;50.248;8.252;2023-05-21T08:21:49;18.10;;;13.15;;
37407;SDS011;24866;50.248;8.252;2023-05-21T08:24:19;14.88;;;13.18;;
37407;SDS011;24866;50.248;8.252;2023-05-21T08:26:50;17.73;;;13.70;;
37407;SDS011;24866;50.248;8.252;2023-05-21T08:29:20;15.40;;;12.30;;
37407;SDS011;24866;50.248;8.252;2023-05-21T08:31:50;18.05;;;14.05;;
37407;SDS011;24866;50.248;8.252;2023-05-21T08:34:20;16.30;;;12.48;;
37407;SDS011;24866;50.248;8.252;2023-05-21T08:36:51;17.35;;;13.75;;
37407;SDS011;24866;50.248;8.252;2023-05-21T08:39:21;15.27;;;13.23;;
37407;SDS011;24866;50.248;8.252;2023-05-21T08:41:53;17.00;;;13.35;;
37407;SDS011;24866;50.248;8.252;2023-05-21T08:44:31;16.23;;;12.90;;
37407;SDS011;24866;50.248;8.252;2023-05-21T08:47:02;16.17;;;12.75;;
37407;SDS011;24866;50.248;8.252;2023-05-21T08:49:35;16.02;;;14.32;;
37407;SDS011;24866;50.248;8.252;2023-05-21T08:52:10;16.13;;;13.32;;
37407;SDS011;24866;50.248;8.252;2023-05-21T08:54:40;16.73;;;14.50;;
37407;SDS011;24866;50.248;8.252;2023-05-21T08:57:12;16.30;;;13.63;;
37407;SDS011;24866;50.248;8.252;2023-05-21T08:59:43;18.63;;;14.23;;
37407;SDS011;24866;50.248;8.252;2023-05-21T09:02:14;15.95;;;13.05;;
37407;SDS011;24866;50.248;8.252;2023-05-21T09:04:45;17.08;;;13.07;;
37407;SDS011;24866;50.248;8.252;2023-05-21T09:07:17;16.35;;;13.82;;
37407;SDS011;24866;50.248;8.252;2023-05-21T09:09:49;15.75;;;13.52;;
37407;SDS011;24866;50.248;8.252;2023-05-21T09:12:24;17.40;;;13.63;;
37407;SDS011;24866;50.248;8.252;2023-05-21T09:14:55;15.60;;;13.98;;
37407;SDS011;24866;50.248;8.252;2023-05-21T09:17:27;16.83;;;13.73;;
37407;SDS011;24866;50.248;8.252;2023-05-21T09:20:04;16.70;;;14.07;;
37407;SDS011;24866;50.248;8.252;2023-05-21T09:22:39;16.33;;;14.63;;
37407;SDS011;24866;50.248;8.252;2023-05-21T09:25:11;16.15;;;14.48;;
37407;SDS011;24866;50.248;8.252;2023-05-21T09:27:43;16.23;;;13.82;;
37407;SDS011;24866;50.248;8.252;2023-05-21T09:30:13;15.10;;;13.45;;
37407;SDS011;24866;50.248;8.252;2023-05-21T09:32:44;14.90;;;12.17;;
37407;SDS011;24866;50.248;8.252;2023-05-21T09:35:21;14.63;;;13.10;;
37407;SDS011;24866;50.248;8.252;2023-05-21T09:37:51;16.33;;;14.32;;
37407;SDS011;24866;50.248;8.252;2023-05-21T09:40:22;21.00;;;13.02;;
37407;SDS011;24866;50.248;8.252;2023-05-21T09:42:53;17.73;;;13.05;;
37407;SDS011;24866;50.248;8.252;2023-05-21T09:45:24;16.67;;;13.85;;
37407;SDS011;24866;50.248;8.252;2023-05-21T09:47:54;16.45;;;14.15;;
37407;SDS011;24866;50.248;8.252;2023-05-21T09:50:25;17.85;;;13.48;;
37407;SDS011;24866;50.248;8.252;2023-05-21T09:52:55;16.70;;;13.40;;
37407;SDS011;24866;50.248;8.252;2023-05-21T09:55:27;15.23;;;13.35;;
37407;SDS011;24866;50.248;8.252;2023-05-21T09:57:58;17.50;;;13.25;;
37407;SDS011;24866;50.248;8.252;2023-05-21T10:00:29;16.60;;;13.88;;
37407;SDS011;24866;50.248;8.252;2023-05-21T10:03:00;15.10;;;12.25;;
37407;SDS011;24866;50.248;8.252;2023-05-21T10:05:32;12.88;;;10.48;;
37407;SDS011;24866;50.248;8.252;2023-05-21T10:08:02;14.77;;;12.10;;
37407;SDS011;24866;50.248;8.252;2023-05-21T10:10:35;13.43;;;11.73;;
37407;SDS011;24866;50.248;8.252;2023-05-21T10:13:08;12.82;;;11.35;;
37407;SDS011;24866;50.248;8.252;2023-05-21T10:15:43;12.05;;;9.02;;
37407;SDS011;24866;50.248;8.252;2023-05-21T10:18:16;12.65;;;10.80;;
37407;SDS011;24866;50.248;8.252;2023-05-21T10:20:48;15.48;;;11.70;;
37407;SDS011;24866;50.248;8.252;2023-05-21T10:23:19;12.80;;;11.27;;
37407;SDS011;24866;50.248;8.252;2023-05-21T10:25:51;14.65;;;11.90;;
37407;SDS011;24866;50.248;8.252;2023-05-21T10:28:23;13.38;;;11.52;;
37407;SDS011;24866;50.248;8.252;2023-05-21T10:30:53;13.00;;;10.70;;
37407;SDS011;24866;50.248;8.252;2023-05-21T10:33:23;11.40;;;10.13;;
37407;SDS011;24866;50.248;8.252;2023-05-21T10:35:55;11.30;;;10.05;;
37407;SDS011;24866;50.248;8.252;2023-05-21T10:38:27;12.05;;;9.93;;
37407;SDS011;24866;50.248;8.252;2023-05-21T10:40:58;10.82;;;9.82;;
37407;SDS011;24866;50.248;8.252;2023-05-21T10:43:45;13.98;;;11.40;;
37407;SDS011;24866;50.248;8.252;2023-05-21T10:46:27;11.45;;;9.90;;
37407;SDS011;24866;50.248;8.252;2023-05-21T10:49:37;11.02;;;9.93;;
37407;SDS011;24866;50.248;8.252;2023-05-21T10:52:21;12.45;;;10.80;;
37407;SDS011;24866;50.248;8.252;2023-05-21T10:55:06;12.05;;;10.73;;
37407;SDS011;24866;50.248;8.252;2023-05-21T10:57:52;12.88;;;11.15;;
37407;SDS011;24866;50.248;8.252;2023-05-21T11:00:54;14.90;;;10.65;;
37407;SDS011;24866;50.248;8.252;2023-05-21T11:03:26;11.50;;;9.93;;
37407;SDS011;24866;50.248;8.252;2023-05-21T11:05:58;13.13;;;10.35;;
37407;SDS011;24866;50.248;8.252;2023-05-21T11:08:32;12.52;;;10.90;;
37407;SDS011;24866;50.248;8.252;2023-05-21T11:11:03;11.45;;;9.82;;
37407;SDS011;24866;50.248;8.252;2023-05-21T11:13:44;13.35;;;9.18;;
37407;SDS011;24866;50.248;8.252;2023-05-21T11:16:17;12.70;;;10.10;;
37407;SDS011;24866;50.248;8.252;2023-05-21T11:18:58;12.18;;;9.05;;
37407;SDS011;24866;50.248;8.252;2023-05-21T11:21:29;10.50;;;8.90;;
37407;SDS011;24866;50.248;8.252;2023-05-21T11:24:03;10.90;;;9.65;;
37407;SDS011;24866;50.248;8.252;2023-05-21T11:29:41;13.32;;;9.98;;
37407;SDS011;24866;50.248;8.252;2023-05-21T11:32:13;9.75;;;8.75;;
37407;SDS011;24866;50.248;8.252;2023-05-21T11:34:47;11.88;;;9.52;;
37407;SDS011;24866;50.248;8.252;2023-05-21T11:37:26;16.63;;;9.68;;
37407;SDS011;24866;50.248;8.252;2023-05-21T11:40:14;11.25;;;9.32;;
37407;SDS011;24866;50.248;8.252;2023-05-21T11:42:49;11.82;;;9.63;;
37407;SDS011;24866;50.248;8.252;2023-05-21T11:45:20;9.82;;;8.52;;
37407;SDS011;24866;50.248;8.252;2023-05-21T11:47:53;11.90;;;8.68;;
37407;SDS011;24866;50.248;8.252;2023-05-21T11:52:54;10.93;;;9.77;;
37407;SDS011;24866;50.248;8.252;2023-05-21T11:55:24;10.98;;;8.63;;
37407;SDS011;24866;50.248;8.252;2023-05-21T11:57:55;11.52;;;9.27;;
37407;SDS011;24866;50.248;8.252;2023-05-21T12:00:27;12.07;;;10.32;;
37407;SDS011;24866;50.248;8.252;2023-05-21T12:02:59;10.45;;;9.23;;
37407;SDS011;24866;50.248;8.252;2023-05-21T12:05:29;9.60;;;8.60;;
37407;SDS011;24866;50.248;8.252;2023-05-21T12:07:58;10.35;;;8.63;;
37407;SDS011;24866;50.248;8.252;2023-05-21T12:10:28;11.15;;;9.73;;
37407;SDS011;24866;50.248;8.252;2023-05-21T12:12:58;9.88;;;8.77;;
37407;SDS011;24866;50.248;8.252;2023-05-21T12:15:28;10.30;;;8.65;;
37407;SDS011;24866;50.248;8.252;2023-05-21T12:18:00;12.63;;;9.40;;
37407;SDS011;24866;50.248;8.252;2023-05-21T12:20:30;13.55;;;9.50;;
37407;SDS011;24866;50.248;8.252;2023-05-21T12:23:00;10.35;;;9.25;;
37407;SDS011;24866;50.248;8.252;2023-05-21T12:25:30;9.80;;;8.43;;
37407;SDS011;24866;50.248;8.252;2023-05-21T12:28:01;12.30;;;8.63;;
37407;SDS011;24866;50.248;8.252;2023-05-21T12:30:32;11.20;;;7.35;;
37407;SDS011;24866;50.248;8.252;2023-05-21T12:33:03;9.85;;;7.93;;
37407;SDS011;24866;50.248;8.252;2023-05-21T12:35:35;9.23;;;7.93;;
37407;SDS011;24866;50.248;8.252;2023-05-21T12:38:05;11.05;;;8.15;;
37407;SDS011;24866;50.248;8.252;2023-05-21T12:40:36;9.68;;;8.68;;
37407;SDS011;24866;50.248;8.252;2023-05-21T12:43:07;10.60;;;8.88;;
37407;SDS011;24866;50.248;8.252;2023-05-21T12:45:37;11.43;;;8.25;;
37407;SDS011;24866;50.248;8.252;2023-05-21T12:48:15;8.95;;;8.05;;
37407;SDS011;24866;50.248;8.252;2023-05-21T12:50:44;10.23;;;9.23;;
37407;SDS011;24866;50.248;8.252;2023-05-21T12:53:14;9.13;;;8.07;;
37407;SDS011;24866;50.248;8.252;2023-05-21T12:55:44;9.52;;;7.93;;
37407;SDS011;24866;50.248;8.252;2023-05-21T12:58:14;10.18;;;8.30;;
37407;SDS011;24866;50.248;8.252;2023-05-21T13:00:44;8.27;;;6.93;;
37407;SDS011;24866;50.248;8.252;2023-05-21T13:03:15;9.13;;;8.23;;
37407;SDS011;24866;50.248;8.252;2023-05-21T13:05:45;11.25;;;7.78;;
37407;SDS011;24866;50.248;8.252;2023-05-21T13:08:15;9.82;;;7.68;;
37407;SDS011;24866;50.248;8.252;2023-05-21T13:10:45;10.18;;;8.55;;
37407;SDS011;24866;50.248;8.252;2023-05-21T13:13:15;10.93;;;7.70;;
37407;SDS011;24866;50.248;8.252;2023-05-21T13:15:45;10.85;;;7.53;;
37407;SDS011;24866;50.248;8.252;2023-05-21T13:18:16;9.43;;;7.05;;
37407;SDS011;24866;50.248;8.252;2023-05-21T13:20:47;8.88;;;7.00;;
37407;SDS011;24866;50.248;8.252;2023-05-21T13:23:18;8.82;;;6.90;;
37407;SDS011;24866;50.248;8.252;2023-05-21T13:25:48;7.65;;;6.80;;
37407;SDS011;24866;50.248;8.252;2023-05-21T13:28:18;8.75;;;7.78;;
37407;SDS011;24866;50.248;8.252;2023-05-21T13:30:48;12.13;;;7.43;;
37407;SDS011;24866;50.248;8.252;2023-05-21T13:33:21;8.40;;;6.95;;
37407;SDS011;24866;50.248;8.252;2023-05-21T13:35:51;8.27;;;7.28;;
37407;SDS011;24866;50.248;8.252;2023-05-21T13:38:21;8.40;;;6.97;;
37407;SDS011;24866;50.248;8.252;2023-05-21T13:40:52;8.60;;;7.30;;
37407;SDS011;24866;50.248;8.252;2023-05-21T13:43:22;9.25;;;7.65;;
37407;SDS011;24866;50.248;8.252;2023-05-21T13:45:52;9.45;;;7.70;;
37407;SDS011;24866;50.248;8.252;2023-05-21T13:48:30;10.48;;;7.90;;
37407;SDS011;24866;50.248;8.252;2023-05-21T13:51:00;10.15;;;7.68;;
37407;SDS011;24866;50.248;8.252;2023-05-21T13:53:30;8.90;;;7.95;;
37407;SDS011;24866;50.248;8.252;2023-05-21T13:56:00;10.27;;;7.90;;
37407;SDS011;24866;50.248;8.252;2023-05-21T13:58:30;8.20;;;7.18;;
37407;SDS011;24866;50.248;8.252;2023-05-21T14:01:04;9.88;;;7.47;;
37407;SDS011;24866;50.248;8.252;2023-05-21T14:03:36;10.35;;;8.13;;
37407;SDS011;24866;50.248;8.252;2023-05-21T14:06:05;9.80;;;7.25;;
37407;SDS011;24866;50.248;8.252;2023-05-21T14:08:35;8.32;;;7.28;;
37407;SDS011;24866;50.248;8.252;2023-05-21T14:11:05;9.18;;;7.00;;
37407;SDS011;24866;50.248;8.252;2023-05-21T14:13:35;8.27;;;7.47;;
37407;SDS011;24866;50.248;8.252;2023-05-21T14:16:06;8.32;;;7.43;;
37407;SDS011;24866;50.248;8.252;2023-05-21T14:18:38;10.73;;;7.60;;
37407;SDS011;24866;50.248;8.252;2023-05-21T14:21:08;9.35;;;7.72;;
37407;SDS011;24866;50.248;8.252;2023-05-21T14:23:38;8.18;;;7.38;;
37407;SDS011;24866;50.248;8.252;2023-05-21T14:26:07;7.68;;;6.75;;
37407;SDS011;24866;50.248;8.252;2023-05-21T14:28:38;10.50;;;8.02;;
37407;SDS011;24866;50.248;8.252;2023-05-21T14:31:07;8.45;;;7.53;;
37407;SDS011;24866;50.248;8.252;2023-05-21T14:33:39;12.88;;;7.18;;
37407;SDS011;24866;50.248;8.252;2023-05-21T14:36:09;8.98;;;7.40;;
37407;SDS011;24866;50.248;8.252;2023-05-21T14:38:39;11.13;;;7.93;;
37407;SDS011;24866;50.248;8.252;2023-05-21T14:41:09;8.52;;;7.63;;
37407;SDS011;24866;50.248;8.252;2023-05-21T14:43:39;9.18;;;6.95;;
37407;SDS011;24866;50.248;8.252;2023-05-21T14:46:09;8.93;;;7.82;;
37407;SDS011;24866;50.248;8.252;2023-05-21T14:48:40;8.57;;;7.07;;
37407;SDS011;24866;50.248;8.252;2023-05-21T14:51:10;8.27;;;7.30;;
37407;SDS011;24866;50.248;8.252;2023-05-21T14:53:40;9.63;;;7.43;;
37407;SDS011;24866;50.248;8.252;2023-05-21T14:56:10;7.68;;;6.88;;
37407;SDS011;24866;50.248;8.252;2023-05-21T14:58:40;8.55;;;7.00;;
37407;SDS011;24866;50.248;8.252;2023-05-21T15:01:10;7.88;;;7.07;;
37407;SDS011;24866;50.248;8.252;2023-05-21T15:03:41;8.65;;;7.03;;